createdAt,value
2019-03-25T00:00:32.508Z,49.60
2019-03-25T00:03:29.029Z,51.00
2019-03-25T00:06:25.231Z,50.43
2019-03-25T00:09:22.064Z,49.75
2019-03-25T00:12:18.757Z,48.95
2019-03-25T00:15:14.992Z,46.63
2019-03-25T00:18:11.320Z,43.02
2019-03-25T00:21:07.892Z,40.60
2019-03-25T00:24:04.819Z,41.48
2019-03-25T00:27:02.691Z,38.98
2019-03-25T00:29:58.868Z,39.85
2019-03-25T00:32:55.442Z,38.40
2019-03-25T00:35:52.063Z,38.02
2019-03-25T00:38:48.310Z,39.20
2019-03-25T00:41:44.378Z,35.70
2019-03-25T00:44:40.628Z,33.50
2019-03-25T00:47:37.179Z,32.78
2019-03-25T00:50:33.668Z,31.65
2019-03-25T00:53:30.333Z,30.75
2019-03-25T00:56:26.807Z,33.88
2019-03-25T00:59:23.019Z,32.45
2019-03-25T01:02:19.236Z,31.55
2019-03-25T01:05:15.827Z,31.23
2019-03-25T01:08:12.415Z,29.02
2019-03-25T01:11:08.872Z,25.70
2019-03-25T01:14:04.963Z,26.70
2019-03-25T01:17:01.474Z,27.42
2019-03-25T01:19:58.248Z,26.42
2019-03-25T01:22:54.338Z,23.05
2019-03-25T01:25:50.970Z,21.55
2019-03-25T01:28:47.922Z,21.12
2019-03-25T01:31:44.129Z,21.17
2019-03-25T01:34:40.342Z,20.30
2019-03-25T01:37:37.147Z,21.55
2019-03-25T01:40:33.932Z,20.97
2019-03-25T01:43:30.258Z,21.73
2019-03-25T01:46:27.167Z,23.40
2019-03-25T01:49:23.563Z,23.20
2019-03-25T01:52:20.164Z,24.00
2019-03-25T01:55:17.288Z,22.95
2019-03-25T01:58:14.515Z,32.08
2019-03-25T02:01:11.363Z,23.27
2019-03-25T02:04:07.625Z,23.83
2019-03-25T02:07:04.477Z,24.85
2019-03-25T02:10:01.001Z,25.95
2019-03-25T02:12:58.853Z,28.40
2019-03-25T02:15:56.357Z,28.10
2019-03-25T02:18:53.515Z,27.52
2019-03-25T02:21:50.483Z,32.25
2019-03-25T02:24:47.040Z,25.23
2019-03-25T02:27:43.653Z,24.92
2019-03-25T02:30:39.901Z,26.62
2019-03-25T02:33:37.007Z,26.90
2019-03-25T02:36:34.245Z,27.50
2019-03-25T02:39:30.562Z,26.30
2019-03-25T02:42:27.471Z,27.30
2019-03-25T02:45:24.103Z,25.37
2019-03-25T02:48:20.892Z,26.55
2019-03-25T02:51:17.750Z,29.10
2019-03-25T02:54:14.036Z,30.00
2019-03-25T02:57:10.732Z,29.72
2019-03-25T03:00:07.756Z,30.90
2019-03-25T03:03:03.974Z,28.67
2019-03-25T03:06:00.295Z,25.90
2019-03-25T03:08:56.405Z,40.03
2019-03-25T03:11:52.912Z,26.97
2019-03-25T03:14:49.059Z,27.82
2019-03-25T03:17:46.828Z,26.77
2019-03-25T03:20:43.129Z,30.20
2019-03-25T03:23:39.656Z,24.45
2019-03-25T03:26:36.158Z,23.95
2019-03-25T03:29:33.757Z,23.70
2019-03-25T03:32:32.028Z,25.75
2019-03-25T03:35:28.204Z,27.30
2019-03-25T03:38:24.992Z,32.15
2019-03-25T03:41:21.421Z,28.60
2019-03-25T03:44:18.488Z,28.70
2019-03-25T03:47:16.662Z,27.07
2019-03-25T03:50:15.016Z,25.55
2019-03-25T03:53:12.229Z,26.57
2019-03-25T03:56:13.249Z,25.77
2019-03-25T03:59:07.162Z,26.33
2019-03-25T04:02:04.299Z,27.02
2019-03-25T04:05:01.392Z,26.93
2019-03-25T04:07:57.927Z,29.52
2019-03-25T04:10:55.465Z,27.37
2019-03-25T04:13:52.159Z,29.18
2019-03-25T04:16:48.613Z,26.82
2019-03-25T04:19:45.321Z,26.12
2019-03-25T04:22:42.569Z,25.20
2019-03-25T04:25:39.744Z,27.15
2019-03-25T04:28:36.217Z,24.07
2019-03-25T04:31:36.810Z,29.55
2019-03-25T04:34:41.768Z,38.33
2019-03-25T04:37:50.820Z,30.68
2019-03-25T04:40:53.207Z,30.88
2019-03-25T04:43:50.564Z,29.10
2019-03-25T04:46:50.987Z,29.45
2019-03-25T04:49:48.874Z,27.27
2019-03-25T04:52:45.351Z,27.13
2019-03-25T04:55:42.402Z,27.40
2019-03-25T04:58:39.134Z,25.92
2019-03-25T05:01:35.651Z,26.85
2019-03-25T05:04:31.613Z,27.35
2019-03-25T05:07:28.115Z,25.68
2019-03-25T05:10:24.597Z,26.23
2019-03-25T05:13:29.913Z,25.88
2019-03-25T05:16:45.468Z,27.62
2019-03-25T05:19:47.595Z,26.15
2019-03-25T05:22:44.078Z,26.52
2019-03-25T05:25:43.961Z,25.20
2019-03-25T05:28:42.698Z,26.25
2019-03-25T05:31:41.993Z,22.77
2019-03-25T05:34:42.241Z,23.95
2019-03-25T05:37:41.889Z,26.35
2019-03-25T05:40:39.024Z,26.33
2019-03-25T05:43:39.261Z,24.45
2019-03-25T05:46:40.671Z,23.20
2019-03-25T05:49:38.674Z,22.95
2019-03-25T05:52:36.842Z,20.48
2019-03-25T05:55:35.333Z,20.17
2019-03-25T05:58:32.683Z,19.70
2019-03-25T06:01:31.247Z,19.87
2019-03-25T06:04:48.065Z,19.00
2019-03-25T06:07:50.124Z,18.12
2019-03-25T06:10:51.772Z,21.82
2019-03-25T06:13:49.709Z,19.25
2019-03-25T06:16:47.944Z,18.55
2019-03-25T06:19:49.646Z,17.65
2019-03-25T06:22:48.532Z,16.73
2019-03-25T06:25:46.246Z,16.12
2019-03-25T06:28:45.170Z,16.07
2019-03-25T06:31:43.159Z,16.90
2019-03-25T06:34:45.182Z,17.10
2019-03-25T06:39:06.598Z,18.27
2019-03-25T06:42:05.020Z,16.00
2019-03-25T06:45:02.993Z,15.75
2019-03-25T06:48:01.097Z,16.20
2019-03-25T06:51:03.294Z,17.17
2019-03-25T06:54:05.471Z,15.50
2019-03-25T06:57:05.150Z,14.65
2019-03-25T07:00:08.817Z,15.75
2019-03-25T07:03:07.254Z,15.28
2019-03-25T07:06:04.320Z,17.02
2019-03-25T07:09:03.816Z,17.20
2019-03-25T07:12:15.815Z,16.52
2019-03-25T07:15:19.405Z,14.73
2019-03-25T07:18:19.268Z,15.03
2019-03-25T07:21:22.229Z,14.80
2019-03-25T07:24:19.509Z,14.28
2019-03-25T07:27:16.836Z,13.80
2019-03-25T07:30:17.802Z,14.28
2019-03-25T07:33:20.465Z,14.55
2019-03-25T07:36:19.125Z,11.73
2019-03-25T07:39:17.115Z,12.15
2019-03-25T07:42:15.762Z,12.68
2019-03-25T07:45:14.591Z,13.20
2019-03-25T07:48:13.329Z,13.10
2019-03-25T07:51:17.762Z,12.20
2019-03-25T07:54:12.506Z,12.15
2019-03-25T07:57:11.723Z,12.03
2019-03-25T08:00:14.191Z,12.35
2019-03-25T08:03:15.686Z,12.85
2019-03-25T08:06:14.327Z,13.90
2019-03-25T08:09:23.251Z,13.10
2019-03-25T08:12:28.676Z,14.25
2019-03-25T08:15:27.093Z,15.58
2019-03-25T08:18:25.847Z,14.43
2019-03-25T08:21:28.909Z,14.33
2019-03-25T08:24:25.571Z,12.68
2019-03-25T08:27:27.252Z,12.85
2019-03-25T08:30:24.517Z,13.00
2019-03-25T08:33:23.136Z,12.85
2019-03-25T08:36:20.451Z,12.82
2019-03-25T08:39:16.997Z,12.30
2019-03-25T08:42:12.983Z,11.73
2019-03-25T08:45:09.721Z,11.60
2019-03-25T08:48:05.938Z,12.33
2019-03-25T08:51:02.899Z,11.78
2019-03-25T08:54:08.618Z,13.58
2019-03-25T08:57:10.263Z,11.25
2019-03-25T09:00:07.014Z,10.82
2019-03-25T09:03:03.388Z,10.93
2019-03-25T09:06:01.427Z,10.82
2019-03-25T09:08:59.181Z,11.43
2019-03-25T09:11:54.492Z,11.55
2019-03-25T09:14:51.077Z,10.68
2019-03-25T09:17:47.623Z,10.65
2019-03-25T09:20:43.816Z,11.48
2019-03-25T09:23:41.149Z,11.20
2019-03-25T09:26:38.626Z,11.68
2019-03-25T09:29:36.617Z,11.65
2019-03-25T09:32:37.620Z,11.60
2019-03-25T09:35:34.749Z,13.30
2019-03-25T09:38:31.535Z,12.23
2019-03-25T09:41:28.292Z,10.70
2019-03-25T09:44:24.922Z,11.60
2019-03-25T09:47:24.215Z,11.33
2019-03-25T09:50:20.698Z,10.60
2019-03-25T09:53:18.646Z,10.82
2019-03-25T09:56:15.635Z,10.48
2019-03-25T09:59:19.944Z,10.70
2019-03-25T10:02:17.258Z,10.20
2019-03-25T10:05:15.051Z,11.55
2019-03-25T10:08:13.541Z,11.00
2019-03-25T10:11:10.895Z,11.05
2019-03-25T10:14:07.768Z,12.03
2019-03-25T10:17:04.443Z,11.30
2019-03-25T10:20:02.597Z,11.22
2019-03-25T10:23:10.795Z,11.50
2019-03-25T10:26:44.452Z,12.65
2019-03-25T10:30:13.035Z,12.43
2019-03-25T10:33:24.110Z,12.43
2019-03-25T10:40:37.857Z,12.28
2019-03-25T10:48:30.654Z,12.98
2019-03-25T10:50:19.938Z,13.62
2019-03-25T10:53:19.134Z,12.43
2019-03-25T10:56:18.021Z,11.40
2019-03-25T10:59:14.518Z,10.98
2019-03-25T11:02:15.790Z,11.78
2019-03-25T11:05:13.508Z,10.98
2019-03-25T11:08:10.316Z,11.40
2019-03-25T11:11:16.466Z,11.63
2019-03-25T11:14:15.387Z,12.55
2019-03-25T11:17:23.079Z,12.03
2019-03-25T11:20:19.580Z,11.35
2019-03-25T11:23:16.135Z,12.90
2019-03-25T11:26:14.218Z,12.28
2019-03-25T11:29:11.541Z,12.78
2019-03-25T11:32:13.542Z,12.15
2019-03-25T11:35:12.063Z,13.22
2019-03-25T11:38:09.364Z,11.93
2019-03-25T11:41:07.029Z,13.45
2019-03-25T11:44:03.127Z,12.60
2019-03-25T11:47:01.434Z,12.10
2019-03-25T11:49:59.045Z,13.83
2019-03-25T11:52:56.550Z,15.32
2019-03-25T11:55:52.924Z,14.53
2019-03-25T11:58:49.397Z,14.78
2019-03-25T12:01:45.615Z,20.57
2019-03-25T12:04:42.998Z,19.17
2019-03-25T12:07:39.012Z,16.55
2019-03-25T12:10:34.624Z,16.07
2019-03-25T12:13:32.141Z,14.80
2019-03-25T12:16:31.386Z,16.75
2019-03-25T12:19:26.369Z,16.87
2019-03-25T12:22:30.518Z,17.00
2019-03-25T12:25:29.107Z,36.20
2019-03-25T12:28:25.798Z,46.18
2019-03-25T12:31:22.346Z,30.15
2019-03-25T12:34:22.512Z,77.82
2019-03-25T12:37:18.983Z,37.48
2019-03-25T12:40:15.329Z,39.78
2019-03-25T12:43:15.041Z,49.05
2019-03-25T12:46:17.267Z,59.13
2019-03-25T12:49:17.708Z,44.55
2019-03-25T12:52:14.952Z,36.70
2019-03-25T12:55:11.636Z,35.38
2019-03-25T12:58:09.157Z,34.10
2019-03-25T13:01:04.985Z,25.92
2019-03-25T13:04:01.641Z,27.37
2019-03-25T13:06:58.783Z,27.98
2019-03-25T13:09:55.893Z,33.20
2019-03-25T13:12:55.247Z,36.53
2019-03-25T13:15:55.860Z,27.35
2019-03-25T13:18:52.549Z,28.65
2019-03-25T13:21:49.759Z,28.05
2019-03-25T13:24:46.810Z,35.83
2019-03-25T13:27:43.302Z,31.95
2019-03-25T13:30:39.160Z,29.70
2019-03-25T13:33:35.175Z,31.50
2019-03-25T13:36:31.415Z,37.25
2019-03-25T13:39:28.067Z,49.77
2019-03-25T13:42:24.358Z,48.58
2019-03-25T13:45:20.901Z,38.33
2019-03-25T13:48:17.455Z,42.38
2019-03-25T13:51:13.772Z,34.92
2019-03-25T13:54:10.481Z,36.85
2019-03-25T13:57:07.111Z,35.38
2019-03-25T14:00:04.112Z,38.15
2019-03-25T14:03:00.604Z,38.08
2019-03-25T14:05:57.734Z,37.50
2019-03-25T14:08:55.802Z,36.40
2019-03-25T14:11:51.692Z,32.50
2019-03-25T14:14:48.379Z,34.65
2019-03-25T14:17:44.953Z,35.40
2019-03-25T14:20:41.543Z,34.65
2019-03-25T14:23:38.131Z,34.40
2019-03-25T14:26:34.646Z,40.20
2019-03-25T14:29:31.346Z,49.40
2019-03-25T14:32:27.859Z,106.92
2019-03-25T14:35:24.651Z,55.60
2019-03-25T14:38:21.381Z,38.70
2019-03-25T14:41:17.750Z,44.33
2019-03-25T14:44:13.857Z,41.15
2019-03-25T14:47:10.605Z,41.63
2019-03-25T14:50:07.247Z,41.37
2019-03-25T14:53:03.645Z,39.15
2019-03-25T14:56:00.104Z,37.33
2019-03-25T14:58:57.036Z,36.33
2019-03-25T15:01:55.334Z,35.73
2019-03-25T15:04:52.220Z,34.98
2019-03-25T15:07:49.726Z,35.48
2019-03-25T15:10:53.516Z,34.78
2019-03-25T15:13:43.932Z,33.08
2019-03-25T15:16:40.907Z,31.90
2019-03-25T15:19:37.848Z,30.40
2019-03-25T15:22:36.547Z,31.20
2019-03-25T15:25:34.660Z,29.52
2019-03-25T15:28:31.198Z,28.23
2019-03-25T15:31:27.599Z,30.57
2019-03-25T15:34:28.000Z,30.65
2019-03-25T15:37:24.574Z,33.67
2019-03-25T15:40:23.613Z,32.85
2019-03-25T15:43:20.492Z,34.67
2019-03-25T15:46:17.180Z,33.15
2019-03-25T15:49:14.350Z,30.72
2019-03-25T15:52:12.598Z,29.67
2019-03-25T15:55:10.912Z,28.52
2019-03-25T15:58:07.670Z,30.60
2019-03-25T16:01:04.367Z,31.27
2019-03-25T16:04:01.352Z,35.65
2019-03-25T16:06:58.790Z,36.03
2019-03-25T16:09:56.808Z,41.85
2019-03-25T16:12:53.846Z,39.15
2019-03-25T16:15:51.888Z,42.43
2019-03-25T16:18:48.540Z,36.05
2019-03-25T16:21:45.597Z,34.45
2019-03-25T16:24:41.661Z,32.45
2019-03-25T16:27:37.619Z,29.55
2019-03-25T16:30:58.636Z,30.02
2019-03-25T16:33:49.093Z,30.80
2019-03-25T16:36:45.538Z,37.23
2019-03-25T16:39:43.789Z,35.95
2019-03-25T16:42:40.331Z,37.95
2019-03-25T16:45:37.527Z,36.83
2019-03-25T16:48:34.896Z,35.08
2019-03-25T16:51:32.127Z,44.77
2019-03-25T16:54:29.308Z,39.35
2019-03-25T16:57:26.107Z,34.40
2019-03-25T17:00:27.501Z,38.60
2019-03-25T17:03:21.778Z,39.03
2019-03-25T17:06:18.257Z,39.90
2019-03-25T17:09:14.964Z,39.83
2019-03-25T17:12:11.102Z,41.00
2019-03-25T17:15:07.615Z,37.10
2019-03-25T17:18:04.542Z,36.13
2019-03-25T17:21:00.712Z,34.10
2019-03-25T17:23:57.312Z,39.80
2019-03-25T17:26:53.767Z,43.30
2019-03-25T17:29:51.249Z,41.55
2019-03-25T17:32:47.587Z,38.08
2019-03-25T17:35:44.213Z,36.80
2019-03-25T17:38:40.814Z,34.98
2019-03-25T17:41:37.002Z,33.80
2019-03-25T17:44:33.465Z,33.67
2019-03-25T17:47:30.019Z,33.58
2019-03-25T17:50:26.347Z,34.95
2019-03-25T17:53:23.218Z,34.15
2019-03-25T17:56:19.944Z,32.95
2019-03-25T17:59:16.592Z,30.68
2019-03-25T18:02:14.012Z,29.50
2019-03-25T18:05:12.965Z,29.27
2019-03-25T18:08:11.334Z,31.97
2019-03-25T18:11:08.516Z,31.93
2019-03-25T18:14:05.482Z,30.37
2019-03-25T18:17:01.545Z,30.82
2019-03-25T18:20:00.051Z,30.32
2019-03-25T18:22:55.812Z,30.10
2019-03-25T18:25:52.526Z,29.87
2019-03-25T18:28:48.957Z,29.90
2019-03-25T18:31:45.711Z,31.85
2019-03-25T18:34:42.365Z,31.42
2019-03-25T18:37:39.176Z,30.48
2019-03-25T18:40:35.645Z,30.75
2019-03-25T18:43:34.128Z,31.95
2019-03-25T18:46:33.326Z,35.13
2019-03-25T18:49:28.782Z,34.27
2019-03-25T18:52:25.115Z,32.50
2019-03-25T18:55:22.105Z,30.82
2019-03-25T18:58:18.899Z,31.95
2019-03-25T19:01:15.491Z,29.82
2019-03-25T19:04:12.292Z,28.70
2019-03-25T19:07:09.061Z,30.65
2019-03-25T19:10:06.128Z,29.48
2019-03-25T19:13:02.736Z,29.92
2019-03-25T19:15:59.185Z,28.20
2019-03-25T19:18:55.736Z,28.20
2019-03-25T19:21:51.981Z,28.73
2019-03-25T19:24:48.789Z,27.90
2019-03-25T19:27:46.698Z,26.57
2019-03-25T19:30:43.997Z,27.17
2019-03-25T19:33:40.608Z,26.45
2019-03-25T19:36:37.423Z,26.75
2019-03-25T19:39:33.721Z,25.85
2019-03-25T19:42:30.111Z,25.27
2019-03-25T19:45:27.112Z,25.17
2019-03-25T19:48:23.656Z,25.60
2019-03-25T19:51:20.637Z,25.10
2019-03-25T19:54:17.341Z,25.72
2019-03-25T19:57:13.819Z,24.23
2019-03-25T20:00:11.061Z,26.50
2019-03-25T20:03:07.772Z,26.02
2019-03-25T20:06:04.269Z,26.68
2019-03-25T20:09:01.368Z,27.15
2019-03-25T20:11:58.253Z,28.17
2019-03-25T20:14:55.006Z,27.73
2019-03-25T20:17:51.223Z,29.00
2019-03-25T20:20:47.712Z,30.92
2019-03-25T20:23:44.306Z,33.42
2019-03-25T20:26:40.767Z,35.50
2019-03-25T20:29:38.014Z,35.73
2019-03-25T20:32:34.456Z,37.90
2019-03-25T20:35:31.266Z,39.53
2019-03-25T20:38:28.200Z,41.18
2019-03-25T20:41:24.540Z,40.95
2019-03-25T20:44:21.013Z,42.78
2019-03-25T20:47:17.492Z,46.33
2019-03-25T20:50:14.242Z,45.52
2019-03-25T20:53:11.027Z,46.45
2019-03-25T20:56:07.837Z,47.08
2019-03-25T20:59:04.638Z,47.10
2019-03-25T21:02:01.441Z,48.02
2019-03-25T21:04:58.094Z,49.08
2019-03-25T21:07:55.002Z,48.08
2019-03-25T21:10:51.513Z,47.83
2019-03-25T21:13:48.365Z,49.53
2019-03-25T21:16:44.796Z,48.25
2019-03-25T21:19:41.414Z,49.83
2019-03-25T21:22:38.229Z,48.95
2019-03-25T21:25:34.694Z,51.68
2019-03-25T21:28:31.410Z,49.88
2019-03-25T21:31:28.158Z,52.73
2019-03-25T21:34:24.972Z,51.23
2019-03-25T21:37:21.871Z,49.73
2019-03-25T21:40:18.807Z,48.70
2019-03-25T21:43:15.359Z,49.00
2019-03-25T21:46:12.118Z,48.05
2019-03-25T21:49:09.067Z,49.53
2019-03-25T21:52:05.869Z,48.13
2019-03-25T21:55:02.750Z,51.10
2019-03-25T21:58:00.332Z,49.77
2019-03-25T22:00:56.969Z,49.67
2019-03-25T22:03:53.621Z,47.43
2019-03-25T22:06:50.333Z,47.88
2019-03-25T22:09:47.151Z,48.05
2019-03-25T22:12:43.817Z,47.00
2019-03-25T22:15:41.328Z,48.40
2019-03-25T22:18:37.537Z,47.05
2019-03-25T22:21:34.200Z,46.77
2019-03-25T22:24:30.962Z,46.83
2019-03-25T22:27:27.674Z,47.00
2019-03-25T22:30:25.913Z,47.30
2019-03-25T22:33:26.097Z,46.95
2019-03-25T22:36:19.257Z,45.75
2019-03-25T22:39:15.922Z,46.40
2019-03-25T22:42:12.487Z,46.90
2019-03-25T22:45:09.648Z,47.00
2019-03-25T22:48:07.538Z,46.95
2019-03-25T22:51:03.195Z,47.08
2019-03-25T22:53:59.662Z,50.20
2019-03-25T22:56:56.832Z,48.70
2019-03-25T22:59:53.689Z,48.60
2019-03-25T23:02:50.187Z,49.25
2019-03-25T23:05:47.034Z,49.50
2019-03-25T23:08:43.991Z,47.10
2019-03-25T23:11:40.992Z,53.10
2019-03-25T23:14:38.249Z,49.03
2019-03-25T23:17:35.753Z,49.40
2019-03-25T23:20:32.554Z,49.48
2019-03-25T23:23:29.103Z,52.88
2019-03-25T23:26:25.722Z,51.18
2019-03-25T23:29:22.381Z,50.48
2019-03-25T23:32:18.840Z,50.38
2019-03-25T23:35:15.341Z,51.30
2019-03-25T23:38:12.488Z,50.63
2019-03-25T23:41:09.214Z,51.10
2019-03-25T23:44:05.979Z,51.35
2019-03-25T23:47:03.193Z,50.45
2019-03-25T23:50:00.552Z,50.38
2019-03-25T23:52:57.495Z,52.93
2019-03-25T23:55:55.641Z,48.50
2019-03-25T23:58:52.918Z,48.85
